Time;durP1;ratioP1;P1;durP2;ratioP2;P2;SDS_P1;SDS_P2;PMS_P1;PMS_P2;Temp;Humidity;BMP_temperature;BMP_pressure;BME280_temperature;BME280_humidity;BME280_pressure;Samples;Min_cycle;Max_cycle;Signal;HPM_P1;HPM_P2
2022/09/27 00:01:23;;;;;;;;;;;;;;;25.21;44.03;92845.00;5017388;28;6997;-60
2022/09/27 00:03:55;;;;;;;;;;;;;;;25.18;44.21;92818.59;5055345;28;7402;-60
2022/09/27 00:06:28;;;;;;;;;;;;;;;25.20;44.72;92819.53;5058704;28;7251;-60
2022/09/27 00:08:57;;;;;;;;;;;;;;;25.21;44.01;92825.75;5074536;28;6989;-60
2022/09/27 00:11:38;;;;;;;;;;;;;;;25.19;44.01;92831.81;5044346;28;7328;-60
2022/09/27 00:14:12;;;;;;;;;;;;;;;25.19;44.79;92831.81;5062783;28;7810;-60
2022/09/27 00:16:47;;;;;;;;;;;;;;;25.18;43.95;92824.84;5052966;28;7236;-60
2022/09/27 00:19:17;;;;;;;;;;;;;;;25.20;44.36;92833.28;5057233;28;9087;-60
2022/09/27 00:21:45;;;;;;;;;;;;;;;25.20;44.44;92829.81;5050464;28;7265;-60
2022/09/27 00:24:17;;;;;;;;;;;;;;;25.19;44.25;92829.06;5053352;28;7325;-60
2022/09/27 00:26:47;;;;;;;;;;;;;;;25.21;44.23;92825.75;5064795;28;9167;-60
2022/09/27 00:29:17;;;;;;;;;;;;;;;25.19;44.82;92829.06;5059344;28;7663;-60
2022/09/27 00:31:46;;;;;;;;;;;;;;;25.18;44.12;92816.59;5077120;28;7012;-60
2022/09/27 00:34:21;;;;;;;;;;;;;;;25.18;44.09;92815.84;5040027;28;8980;-60
2022/09/27 00:36:48;;;;;;;;;;;;;;;25.20;44.48;92821.53;5055017;28;7604;-61
2022/09/27 00:39:17;;;;;;;;;;;;;;;25.18;44.70;92816.59;5056104;28;7205;-60
2022/09/27 00:41:46;;;;;;;;;;;;;;;25.18;44.65;92808.34;5050695;28;8543;-60
2022/09/27 00:44:32;;;;;;;;;;;;;;;25.17;44.53;92817.88;5051814;28;7199;-60
2022/09/27 00:47:20;;;;;;;;;;;;;;;25.16;44.69;92810.91;5036630;28;7204;-60
2022/09/27 00:50:28;;;;;;;;;;;;;;;25.17;44.78;92809.59;5062339;28;7240;-60
2022/09/27 00:56:20;;;;;;;;;;;;;;;25.16;43.99;92812.91;5055776;28;9372;-60
2022/09/27 00:59:05;;;;;;;;;;;;;;;25.15;44.29;92800.44;5071988;28;7987;-60
2022/09/27 01:01:40;;;;;;;;;;;;;;;25.15;44.64;92795.66;5036543;28;7166;-60
2022/09/27 01:04:12;;;;;;;;;;;;;;;25.15;44.55;92803.19;5060711;28;7004;-60
2022/09/27 01:06:40;;;;;;;;;;;;;;;25.16;44.23;92799.91;5080829;28;7080;-61
2022/09/27 01:09:12;;;;;;;;;;;;;;;25.18;44.71;92805.59;5055745;28;7277;-61
2022/09/27 01:11:57;;;;;;;;;;;;;;;25.16;43.91;92799.91;5055845;28;7675;-60
2022/09/27 01:15:01;;;;;;;;;;;;;;;25.17;44.78;92793.09;5048059;28;7240;-61
2022/09/27 01:17:55;;;;;;;;;;;;;;;25.15;44.62;92809.41;5074297;28;9095;-60
2022/09/27 01:21:07;;;;;;;;;;;;;;;25.16;44.66;92821.16;5062003;28;7382;-60
2022/09/27 01:24:08;;;;;;;;;;;;;;;25.18;43.80;92821.34;5070721;28;7269;-60
2022/09/27 01:27:19;;;;;;;;;;;;;;;25.16;43.82;92804.66;5053385;28;7329;-60
2022/09/27 01:30:16;;;;;;;;;;;;;;;25.15;44.65;92800.44;5083795;28;7474;-60
2022/09/27 01:32:56;;;;;;;;;;;;;;;25.15;44.42;92794.91;5076622;28;7245;-60
2022/09/27 01:35:34;;;;;;;;;;;;;;;25.15;44.84;92795.66;5087891;28;6962;-60
2022/09/27 01:38:44;;;;;;;;;;;;;;;25.13;44.09;92789.97;5059552;28;7330;-61
2022/09/27 01:41:31;;;;;;;;;;;;;;;25.14;44.25;92798.97;5061966;28;7266;-61
2022/09/27 01:44:22;;;;;;;;;;;;;;;25.14;43.82;92785.94;5039437;28;7075;-60
2022/09/27 01:46:54;;;;;;;;;;;;;;;25.13;44.44;92778.22;5078976;28;7336;-60
2022/09/27 01:49:50;;;;;;;;;;;;;;;25.13;44.25;92797.47;5054749;28;7053;-60
2022/09/27 01:52:22;;;;;;;;;;;;;;;25.11;44.04;92784.28;5078362;28;7136;-60
2022/09/27 01:55:01;;;;;;;;;;;;;;;25.10;44.32;92785.56;5083241;28;9793;-60
2022/09/27 01:57:39;;;;;;;;;;;;;;;25.11;44.23;92772.53;5063253;28;9085;-61
2022/09/27 02:00:12;;;;;;;;;;;;;;;25.11;44.12;92791.78;5067757;28;7005;-60
2022/09/27 02:02:49;;;;;;;;;;;;;;;25.10;44.32;92782.09;5061874;28;6858;-60
2022/09/27 02:05:30;;;;;;;;;;;;;;;25.10;44.56;92784.84;5070636;28;7623;-61
2022/09/27 02:08:30;;;;;;;;;;;;;;;25.11;44.06;92780.78;5052095;28;6992;-60
2022/09/27 02:11:08;;;;;;;;;;;;;;;25.11;44.07;92778.78;5038405;28;6990;-60
2022/09/27 02:14:09;;;;;;;;;;;;;;;25.12;43.88;92794.00;5046294;28;7808;-60
2022/09/27 02:17:11;;;;;;;;;;;;;;;25.11;44.59;92794.53;5035724;28;7268;-61
2022/09/27 02:19:44;;;;;;;;;;;;;;;25.10;45.01;92795.84;5053536;28;7981;-60
2022/09/27 02:22:12;;;;;;;;;;;;;;;25.09;44.29;92792.34;5084837;28;7352;-60
2022/09/27 02:25:04;;;;;;;;;;;;;;;25.11;43.68;92789.03;5075655;28;7248;-60
2022/09/27 02:28:22;;;;;;;;;;;;;;;25.11;43.73;92794.53;4985220;28;7209;-60
2022/09/27 02:30:51;;;;;;;;;;;;;;;25.11;43.93;92789.03;4918310;29;7532;-60
2022/09/27 02:33:25;;;;;;;;;;;;;;;25.11;44.72;92791.78;4894703;29;6864;-60
2022/09/27 02:35:51;;;;;;;;;;;;;;;25.08;44.43;92799.13;4879441;29;8235;-60
2022/09/27 02:38:19;;;;;;;;;;;;;;;25.07;44.16;92799.69;4908142;29;7249;-60
2022/09/27 02:40:46;;;;;;;;;;;;;;;25.09;44.65;92811.59;4876836;29;7295;-60
2022/09/27 02:43:18;;;;;;;;;;;;;;;25.09;44.28;92817.13;4898596;29;7200;-60
2022/09/27 02:46:03;;;;;;;;;;;;;;;25.07;43.73;92818.94;4891150;29;9110;-60
2022/09/27 02:48:35;;;;;;;;;;;;;;;25.07;43.76;92827.94;4893670;29;7976;-60
2022/09/27 02:51:16;;;;;;;;;;;;;;;25.08;43.71;92834.13;4896259;29;7337;-60
2022/09/27 02:54:15;;;;;;;;;;;;;;;25.08;44.68;92834.13;4889205;29;7165;-60
2022/09/27 02:56:54;;;;;;;;;;;;;;;25.07;44.51;92838.94;4920606;29;7244;-60
2022/09/27 02:59:51;;;;;;;;;;;;;;;25.07;43.72;92843.69;4902495;29;7199;-60
2022/09/27 03:02:28;;;;;;;;;;;;;;;25.07;43.56;92844.44;4917917;29;7335;-60
2022/09/27 03:05:19;;;;;;;;;;;;;;;25.06;44.42;92851.19;4946044;28;7415;-60
2022/09/27 03:07:54;;;;;;;;;;;;;;;25.04;44.45;92851.00;5037706;28;9432;-60
2022/09/27 03:10:34;;;;;;;;;;;;;;;25.03;45.03;92857.06;5066148;28;7359;-61
2022/09/27 03:13:03;;;;;;;;;;;;;;;25.02;44.05;92861.06;5048102;28;7304;-60
2022/09/27 03:15:29;;;;;;;;;;;;;;;25.04;44.29;92858.53;5054993;28;7224;-61
2022/09/27 03:18:03;;;;;;;;;;;;;;;25.05;44.09;92860.00;5058345;28;7701;-61
2022/09/27 03:20:37;;;;;;;;;;;;;;;25.03;43.91;92857.06;5056972;28;9100;-60
2022/09/27 03:23:13;;;;;;;;;;;;;;;25.03;44.04;92854.31;5049784;28;9432;-60
2022/09/27 03:25:48;;;;;;;;;;;;;;;25.03;44.55;92859.81;5038881;28;7242;-60
2022/09/27 03:28:15;;;;;;;;;;;;;;;25.02;44.54;92864.56;5062693;28;7193;-60
2022/09/27 03:30:50;;;;;;;;;;;;;;;25.00;44.76;92858.13;5047586;28;7401;-60
2022/09/27 03:34:08;;;;;;;;;;;;;;;25.03;44.24;92863.31;5053623;28;6959;-60
2022/09/27 03:36:34;;;;;;;;;;;;;;;25.00;44.07;92856.13;4998475;28;7032;-60
2022/09/27 03:39:00;;;;;;;;;;;;;;;25.00;44.33;92871.88;5024132;28;7065;-60
2022/09/27 03:41:28;;;;;;;;;;;;;;;24.99;44.70;92873.19;5028100;28;8937;-60
2022/09/27 03:44:10;;;;;;;;;;;;;;;25.00;44.46;92874.63;5030357;28;9153;-60
2022/09/27 03:46:38;;;;;;;;;;;;;;;25.01;44.52;92879.59;5007524;28;7282;-60
2022/09/27 03:49:21;;;;;;;;;;;;;;;25.01;44.49;92882.34;5025226;28;6994;-60
2022/09/27 03:51:47;;;;;;;;;;;;;;;25.03;44.70;92870.81;5012343;28;7252;-60
2022/09/27 03:54:13;;;;;;;;;;;;;;;24.99;44.40;92884.91;5012747;28;7234;-60
2022/09/27 03:56:57;;;;;;;;;;;;;;;24.99;43.90;92871.16;5008756;28;9198;-60
2022/09/27 03:59:34;;;;;;;;;;;;;;;25.00;44.05;92888.41;5013524;28;7207;-60
2022/09/27 04:02:13;;;;;;;;;;;;;;;24.98;44.62;92888.94;5029484;28;9115;-60
2022/09/27 04:04:40;;;;;;;;;;;;;;;24.99;43.88;92889.69;5013746;28;6995;-60
2022/09/27 04:07:08;;;;;;;;;;;;;;;24.97;44.17;92887.47;5012545;28;7254;-60
2022/09/27 04:09:36;;;;;;;;;;;;;;;24.98;43.87;92886.19;5012182;28;7536;-60
2022/09/27 04:12:12;;;;;;;;;;;;;;;24.97;44.47;92884.00;5039398;28;8488;-60
2022/09/27 04:14:44;;;;;;;;;;;;;;;24.97;44.09;92886.75;5044164;28;7204;-60
2022/09/27 04:17:11;;;;;;;;;;;;;;;24.97;44.20;92884.72;5045263;28;7415;-60
2022/09/27 04:19:46;;;;;;;;;;;;;;;24.97;44.28;92881.25;5052605;28;7258;-60
2022/09/27 04:22:18;;;;;;;;;;;;;;;24.96;44.56;92882.50;5065335;28;7233;-60
2022/09/27 04:24:49;;;;;;;;;;;;;;;24.97;43.70;92887.47;5053238;28;7111;-60
2022/09/27 04:27:45;;;;;;;;;;;;;;;24.98;43.83;92885.44;5064755;28;9700;-60
2022/09/27 04:30:12;;;;;;;;;;;;;;;24.99;43.56;92886.94;5013545;28;7276;-60
2022/09/27 04:33:12;;;;;;;;;;;;;;;24.96;43.72;92888.00;5012055;28;6989;-60
2022/09/27 04:38:37;;;;;;;;;;;;;;;24.92;44.40;92887.63;4931594;29;9054;-60
2022/09/27 04:41:03;;;;;;;;;;;;;;;24.91;44.22;92889.63;4915089;29;7447;-60
2022/09/27 04:43:44;;;;;;;;;;;;;;;24.89;43.76;92894.19;4935825;29;7085;-60
2022/09/27 04:46:16;;;;;;;;;;;;;;;24.91;43.72;92895.13;4934890;29;7293;-60
2022/09/27 04:48:58;;;;;;;;;;;;;;;24.91;44.39;92895.13;4919426;29;10173;-60
2022/09/27 04:51:36;;;;;;;;;;;;;;;24.89;44.08;92896.94;4911208;29;7539;-61
2022/09/27 04:54:04;;;;;;;;;;;;;;;24.85;44.35;92896.56;4920855;29;7243;-60
2022/09/27 04:56:41;;;;;;;;;;;;;;;24.85;45.26;92904.81;4930605;29;7174;-60
2022/09/27 04:59:13;;;;;;;;;;;;;;;24.82;45.01;92903.88;4935124;29;9515;-60
2022/09/27 05:01:54;;;;;;;;;;;;;;;24.83;46.11;92910.13;4913701;29;6981;-60
2022/09/27 05:04:29;;;;;;;;;;;;;;;24.82;45.75;92905.88;4921917;29;7301;-60
2022/09/27 05:07:03;;;;;;;;;;;;;;;24.81;45.10;92912.69;4936496;28;7845;-60
2022/09/27 05:09:29;;;;;;;;;;;;;;;24.75;44.84;92910.06;4931744;28;7535;-61
2022/09/27 05:11:56;;;;;;;;;;;;;;;24.71;45.06;92907.63;4980380;28;9075;-60
2022/09/27 05:14:32;;;;;;;;;;;;;;;24.66;45.49;92913.28;5019635;28;7220;-60
2022/09/27 05:17:08;;;;;;;;;;;;;;;24.61;45.55;92912.16;5037917;28;9504;-60
2022/09/27 05:19:38;;;;;;;;;;;;;;;24.64;45.56;92929.59;5057493;28;7246;-60
2022/09/27 05:22:19;;;;;;;;;;;;;;;24.66;45.04;92930.50;5054541;28;7079;-60
2022/09/27 05:24:47;;;;;;;;;;;;;;;24.70;45.76;92936.44;5060366;28;7234;-60
2022/09/27 05:27:19;;;;;;;;;;;;;;;24.76;44.93;92930.06;5073880;28;9177;-60
2022/09/27 05:29:55;;;;;;;;;;;;;;;24.80;45.32;92933.19;5070980;28;7232;-60
2022/09/27 05:32:53;;;;;;;;;;;;;;;24.85;44.77;92943.31;5075703;28;7576;-60
2022/09/27 05:35:21;;;;;;;;;;;;;;;24.89;44.62;92952.69;4975177;28;8607;-60
2022/09/27 05:37:56;;;;;;;;;;;;;;;24.94;44.59;92942.81;4969641;28;7449;-60
2022/09/27 05:40:23;;;;;;;;;;;;;;;24.97;44.69;92952.75;4960260;28;9325;-60
2022/09/27 05:43:20;;;;;;;;;;;;;;;25.01;43.71;92947.66;4977032;28;7424;-60
2022/09/27 05:45:53;;;;;;;;;;;;;;;25.04;44.20;92946.53;4973496;28;7191;-60
2022/09/27 05:48:30;;;;;;;;;;;;;;;25.10;44.18;92950.63;4954823;28;8063;-60
2022/09/27 05:51:05;;;;;;;;;;;;;;;25.15;43.74;92946.25;4980725;28;7260;-60
2022/09/27 05:53:44;;;;;;;;;;;;;;;25.25;43.56;92958.25;4972473;28;7329;-60
2022/09/27 05:56:16;;;;;;;;;;;;;;;25.34;43.00;92957.72;4989616;28;7428;-60
2022/09/27 05:59:01;;;;;;;;;;;;;;;25.42;43.57;92953.03;4974838;28;7815;-60
2022/09/27 06:02:04;;;;;;;;;;;;;;;25.49;42.48;92954.34;4971514;28;7217;-60
2022/09/27 06:05:00;;;;;;;;;;;;;;;25.57;43.27;92953.09;4948760;28;7543;-60
2022/09/27 06:07:27;;;;;;;;;;;;;;;25.60;43.15;92960.25;4971700;28;7001;-60
2022/09/27 06:09:55;;;;;;;;;;;;;;;25.65;42.48;92951.09;4961072;28;7109;-60
2022/09/27 06:12:29;;;;;;;;;;;;;;;25.69;42.80;92962.47;5025776;28;9087;-60
2022/09/27 06:14:58;;;;;;;;;;;;;;;25.71;42.79;92954.41;5065554;28;6960;-60
2022/09/27 06:17:26;;;;;;;;;;;;;;;25.76;42.98;92958.28;5048519;28;9798;-60
2022/09/27 06:19:52;;;;;;;;;;;;;;;25.76;42.86;92961.78;5044430;28;7236;-60
2022/09/27 06:22:22;;;;;;;;;;;;;;;25.79;42.14;92960.69;5055668;28;7389;-60
2022/09/27 06:24:48;;;;;;;;;;;;;;;25.83;43.07;92966.59;5057110;28;7226;-60
2022/09/27 06:27:17;;;;;;;;;;;;;;;25.85;41.96;92964.00;5066140;28;6945;-60
2022/09/27 06:29:58;;;;;;;;;;;;;;;25.86;41.90;92964.75;5073709;28;9373;-60
2022/09/27 06:32:30;;;;;;;;;;;;;;;25.89;42.29;92966.41;5068177;28;6970;-60
2022/09/27 06:34:56;;;;;;;;;;;;;;;25.87;42.69;92972.47;5036416;28;7149;-60
2022/09/27 06:37:25;;;;;;;;;;;;;;;25.90;42.58;92973.41;5051164;28;9399;-60
2022/09/27 06:39:56;;;;;;;;;;;;;;;25.90;42.48;92973.41;5050176;28;7430;-60
2022/09/27 06:42:34;;;;;;;;;;;;;;;25.93;42.35;92992.31;5074618;28;8557;-60
2022/09/27 06:45:07;;;;;;;;;;;;;;;25.94;42.45;92979.28;5051979;28;7259;-60
2022/09/27 06:47:41;;;;;;;;;;;;;;;25.92;42.40;92982.59;5067271;28;7240;-60
2022/09/27 06:50:44;;;;;;;;;;;;;;;25.93;42.25;92978.53;5068831;28;6991;-60
2022/09/27 06:53:19;;;;;;;;;;;;;;;25.92;42.65;92996.38;5044170;28;7296;-60
2022/09/27 06:56:15;;;;;;;;;;;;;;;25.90;42.30;93001.66;5017794;28;7308;-61
2022/09/27 07:01:28;;;;;;;;;;;;;;;25.86;42.26;93023.31;5047449;28;7311;-60
2022/09/27 07:04:24;;;;;;;;;;;;;;;25.84;42.30;93042.41;5031169;28;7542;-60
2022/09/27 07:07:22;;;;;;;;;;;;;;;25.82;42.42;93039.47;5009155;28;7448;-60
2022/09/27 07:10:31;;;;;;;;;;;;;;;25.80;42.46;93044.78;4933259;29;7096;-60
2022/09/27 07:13:10;;;;;;;;;;;;;;;25.80;42.96;93041.28;4933113;29;7269;-60
2022/09/27 07:15:49;;;;;;;;;;;;;;;25.77;43.29;93042.38;4925873;28;8995;-60
2022/09/27 07:18:24;;;;;;;;;;;;;;;25.76;43.42;93049.91;4933117;29;7442;-60
2022/09/27 07:20:53;;;;;;;;;;;;;;;25.73;43.63;93036.50;4917679;29;7243;-61
2022/09/27 07:23:30;;;;;;;;;;;;;;;25.71;42.83;93050.78;4930711;29;9464;-60
2022/09/27 07:26:03;;;;;;;;;;;;;;;25.70;43.33;93049.34;4929923;29;9413;-60
2022/09/27 07:28:33;;;;;;;;;;;;;;;25.71;43.65;93052.84;4936998;28;7494;-60
2022/09/27 07:31:02;;;;;;;;;;;;;;;25.70;43.50;93065.13;4949704;28;8530;-60
2022/09/27 07:33:47;;;;;;;;;;;;;;;25.67;42.87;93047.66;4933498;28;7002;-61
2022/09/27 07:36:13;;;;;;;;;;;;;;;25.65;43.52;93058.47;4932160;29;7277;-60
2022/09/27 07:38:44;;;;;;;;;;;;;;;25.63;43.41;93069.31;4932575;29;7398;-60
2022/09/27 07:41:14;;;;;;;;;;;;;;;25.62;43.53;93081.59;4933028;28;8521;-60
2022/09/27 07:43:53;;;;;;;;;;;;;;;25.60;44.08;93084.13;4959034;28;7224;-60
2022/09/27 07:46:34;;;;;;;;;;;;;;;25.59;43.59;93090.19;5045136;28;7561;-60
2022/09/27 07:49:37;;;;;;;;;;;;;;;25.57;43.81;93099.00;5052888;28;7498;-60
2022/09/27 07:52:09;;;;;;;;;;;;;;;25.55;44.19;93098.81;4985240;28;7179;-60
2022/09/27 07:54:48;;;;;;;;;;;;;;;25.54;44.07;93088.31;4991547;28;7099;-61
2022/09/27 07:57:24;;;;;;;;;;;;;;;25.53;44.18;93095.88;4994210;28;9035;-60
2022/09/27 07:59:51;;;;;;;;;;;;;;;25.51;44.06;93109.44;4980224;28;8955;-60
2022/09/27 08:02:17;;;;;;;;;;;;;;;25.50;43.86;93107.22;4987362;28;7241;-60
2022/09/27 08:05:15;;;;;;;;;;;;;;;25.49;43.16;93100.97;4986480;28;7462;-60
2022/09/27 08:07:56;;;;;;;;;;;;;;;25.48;43.15;93107.00;4987311;28;7256;-60
2022/09/27 08:10:24;;;;;;;;;;;;;;;25.46;42.84;93109.56;5001201;28;7182;-60
2022/09/27 08:13:02;;;;;;;;;;;;;;;25.45;43.52;93119.13;4998581;28;7284;-60
2022/09/27 08:15:40;;;;;;;;;;;;;;;25.42;43.50;93102.38;4983756;28;8406;-60
2022/09/27 08:18:08;;;;;;;;;;;;;;;25.42;43.23;93107.88;4996478;28;7004;-60
2022/09/27 08:20:34;;;;;;;;;;;;;;;25.43;43.61;93111.38;4997209;28;9744;-60
2022/09/27 08:23:03;;;;;;;;;;;;;;;25.41;43.85;93109.16;4996729;28;6980;-61
2022/09/27 08:25:29;;;;;;;;;;;;;;;25.45;44.03;93116.38;5022345;28;7596;-60
2022/09/27 08:28:08;;;;;;;;;;;;;;;25.42;43.47;93120.94;5058467;28;7819;-60
2022/09/27 08:30:44;;;;;;;;;;;;;;;25.41;43.84;93133.19;5057954;28;9319;-60
2022/09/27 08:33:19;;;;;;;;;;;;;;;25.39;43.39;93119.22;5061536;28;7265;-60
2022/09/27 08:35:45;;;;;;;;;;;;;;;25.40;43.92;93123.47;5051649;28;7179;-60
2022/09/27 08:38:11;;;;;;;;;;;;;;;25.39;43.85;93130.97;5068524;28;7075;-60
2022/09/27 08:41:11;;;;;;;;;;;;;;;25.39;44.14;93119.97;5054616;28;7263;-60
2022/09/27 08:44:05;;;;;;;;;;;;;;;25.38;43.41;93128.78;5046939;28;7209;-61
2022/09/27 08:47:15;;;;;;;;;;;;;;;25.36;44.15;93128.53;5054917;28;7605;-60
2022/09/27 08:50:05;;;;;;;;;;;;;;;25.37;43.96;93135.53;5087099;28;6997;-60
2022/09/27 08:53:22;;;;;;;;;;;;;;;25.35;44.48;93119.56;5072789;28;7940;-60
2022/09/27 08:56:01;;;;;;;;;;;;;;;25.36;44.06;93137.53;4995470;28;7251;-60
2022/09/27 08:58:28;;;;;;;;;;;;;;;25.35;43.89;93129.84;5002520;28;7232;-60
2022/09/27 09:01:05;;;;;;;;;;;;;;;25.33;44.17;93135.16;4996392;28;7002;-60
2022/09/27 09:03:54;;;;;;;;;;;;;;;25.32;43.87;93148.16;5013032;28;7428;-60
2022/09/27 09:06:30;;;;;;;;;;;;;;;25.34;44.37;93144.88;4992223;28;7235;-60
2022/09/27 09:09:14;;;;;;;;;;;;;;;25.33;44.50;93138.63;5004550;28;7171;-60
2022/09/27 09:15:16;;;;;;;;;;;;;;;25.31;44.23;93135.69;4965140;28;7203;-61
2022/09/27 09:18:20;;;;;;;;;;;;;;;25.31;44.34;93129.44;4957769;28;7218;-60
2022/09/27 09:21:00;;;;;;;;;;;;;;;25.31;44.53;93110.19;4955396;28;7286;-61
2022/09/27 09:23:57;;;;;;;;;;;;;;;25.31;43.82;93116.44;4960112;28;7276;-60
2022/09/27 09:26:45;;;;;;;;;;;;;;;25.31;44.68;93107.44;4921057;29;7275;-60
2022/09/27 09:29:14;;;;;;;;;;;;;;;25.29;44.68;93107.22;4919173;29;7283;-60
2022/09/27 09:32:07;;;;;;;;;;;;;;;25.31;44.32;93112.94;4929469;29;7268;-61
2022/09/27 09:34:41;;;;;;;;;;;;;;;25.29;44.30;93107.94;4941290;28;6987;-61
2022/09/27 09:37:34;;;;;;;;;;;;;;;25.27;44.14;93096.75;4935756;28;7874;-60
2022/09/27 09:40:13;;;;;;;;;;;;;;;25.30;44.41;93103.19;4948473;28;6967;-60
2022/09/27 09:42:51;;;;;;;;;;;;;;;25.28;44.59;93098.22;4937378;28;7307;-60
2022/09/27 09:45:31;;;;;;;;;;;;;;;25.26;44.46;93098.03;4924132;28;7103;-60
2022/09/27 09:48:29;;;;;;;;;;;;;;;25.27;45.03;93096.03;4940895;28;9411;-61
2022/09/27 09:51:34;;;;;;;;;;;;;;;25.25;44.63;93098.59;4941704;28;7338;-61
2022/09/27 09:54:24;;;;;;;;;;;;;;;25.23;44.01;93096.34;4969868;28;7134;-61
2022/09/27 09:57:15;;;;;;;;;;;;;;;25.24;44.87;93086.09;4976785;28;7218;-61
2022/09/27 09:59:54;;;;;;;;;;;;;;;25.22;44.17;93086.63;4986980;28;7736;-60
2022/09/27 10:02:26;;;;;;;;;;;;;;;25.24;44.32;93088.84;5033354;28;7611;-60
2022/09/27 10:04:52;;;;;;;;;;;;;;;25.22;44.73;93083.13;5074533;28;7166;-61
2022/09/27 10:07:25;;;;;;;;;;;;;;;25.22;44.66;93077.63;5049630;28;7314;-60
2022/09/27 10:09:57;;;;;;;;;;;;;;;25.21;44.41;93084.41;5042135;28;7306;-60
2022/09/27 10:12:27;;;;;;;;;;;;;;;25.21;44.33;93073.41;5051177;28;8089;-60
2022/09/27 10:14:59;;;;;;;;;;;;;;;25.19;44.51;93067.69;5075219;28;7229;-60
2022/09/27 10:17:43;;;;;;;;;;;;;;;25.14;44.40;93072.06;5053300;28;7854;-60
2022/09/27 10:20:49;;;;;;;;;;;;;;;25.18;43.95;93072.47;5046491;28;7745;-60
2022/09/27 10:23:29;;;;;;;;;;;;;;;25.18;44.70;93075.22;5008329;28;9051;-60
2022/09/27 10:25:59;;;;;;;;;;;;;;;25.17;44.62;93082.00;4991793;28;9031;-60
2022/09/27 10:28:42;;;;;;;;;;;;;;;25.17;44.23;93079.25;5007814;28;7405;-60
2022/09/27 10:31:21;;;;;;;;;;;;;;;25.17;44.76;93078.50;4986892;28;7234;-60
2022/09/27 10:34:16;;;;;;;;;;;;;;;25.16;44.60;93075.03;4987756;28;7184;-60
2022/09/27 10:36:42;;;;;;;;;;;;;;;25.16;43.91;93075.03;5000473;28;7417;-60
2022/09/27 10:39:21;;;;;;;;;;;;;;;25.15;44.21;93068.06;5003020;28;7250;-60
2022/09/27 10:41:47;;;;;;;;;;;;;;;25.16;44.33;93077.03;5004207;28;7256;-60
2022/09/27 10:44:16;;;;;;;;;;;;;;;25.17;44.01;93067.50;4991315;28;7294;-60
2022/09/27 10:46:50;;;;;;;;;;;;;;;25.16;44.12;93068.78;4998785;28;7456;-60
2022/09/27 10:49:24;;;;;;;;;;;;;;;25.14;44.54;93066.56;4980794;28;9046;-61
2022/09/27 10:52:05;;;;;;;;;;;;;;;25.14;44.72;93065.84;5004338;28;8572;-60
2022/09/27 10:54:38;;;;;;;;;;;;;;;25.13;44.83;93064.34;4984813;28;7324;-60
2022/09/27 10:57:18;;;;;;;;;;;;;;;25.14;44.81;93065.84;5002550;28;9067;-60
2022/09/27 11:00:19;;;;;;;;;;;;;;;25.13;44.61;93058.84;5041382;28;8505;-60
2022/09/27 11:02:55;;;;;;;;;;;;;;;25.13;44.39;93053.34;5045829;28;7081;-60
2022/09/27 11:05:28;;;;;;;;;;;;;;;25.12;44.22;93062.91;5069159;28;7243;-61
2022/09/27 11:08:31;;;;;;;;;;;;;;;25.11;45.07;93069.66;5061499;28;7538;-60
2022/09/27 11:11:16;;;;;;;;;;;;;;;25.10;44.59;93076.47;5071690;28;7307;-61
2022/09/27 11:14:06;;;;;;;;;;;;;;;25.10;44.79;93087.47;5077396;28;9411;-60
2022/09/27 11:17:08;;;;;;;;;;;;;;;25.11;44.89;93097.91;5071827;28;7238;-60
2022/09/27 11:20:00;;;;;;;;;;;;;;;25.15;45.18;93094.81;5054208;28;9368;-61
2022/09/27 11:22:54;;;;;;;;;;;;;;;25.12;44.09;93090.41;5058626;28;7070;-60
2022/09/27 11:25:44;;;;;;;;;;;;;;;25.11;45.11;93088.91;5076587;28;8244;-60
2022/09/27 11:28:35;;;;;;;;;;;;;;;25.12;44.61;93109.66;5045890;28;7127;-60
2022/09/27 11:31:28;;;;;;;;;;;;;;;25.10;45.06;93088.19;5052504;28;9470;-60
2022/09/27 11:34:23;;;;;;;;;;;;;;;25.13;44.50;93083.63;5071860;28;9419;-60
2022/09/27 11:37:01;;;;;;;;;;;;;;;25.14;44.23;93080.31;5042339;28;7223;-60
2022/09/27 11:39:49;;;;;;;;;;;;;;;25.14;44.44;93085.09;5053807;28;7508;-60
2022/09/27 11:42:38;;;;;;;;;;;;;;;25.12;44.75;93073.91;5045455;28;7173;-60
2022/09/27 11:45:36;;;;;;;;;;;;;;;25.13;44.73;93084.38;5041189;28;6995;-60
2022/09/27 11:48:21;;;;;;;;;;;;;;;25.12;45.15;93076.66;5069628;28;7081;-60
2022/09/27 11:51:31;;;;;;;;;;;;;;;25.13;44.13;93080.88;5058157;28;7408;-60
2022/09/27 11:53:58;;;;;;;;;;;;;;;25.14;44.54;93087.84;5067130;28;8967;-60
2022/09/27 11:57:03;;;;;;;;;;;;;;;25.11;45.06;93080.66;5070501;28;7172;-60
2022/09/27 11:59:53;;;;;;;;;;;;;;;25.13;44.52;93089.13;4988939;28;7261;-60
2022/09/27 12:02:33;;;;;;;;;;;;;;;25.15;44.32;93075.56;4966859;28;10069;-60
2022/09/27 12:05:35;;;;;;;;;;;;;;;25.15;44.52;93067.31;4969220;28;7666;-60
2022/09/27 12:08:30;;;;;;;;;;;;;;;25.14;44.55;93054.84;4989571;28;7407;-60
2022/09/27 12:11:40;;;;;;;;;;;;;;;25.16;44.80;93069.53;4989049;28;9048;-60
2022/09/27 12:14:35;;;;;;;;;;;;;;;25.17;45.19;93053.75;4918027;29;7257;-60
2022/09/27 12:17:13;;;;;;;;;;;;;;;25.18;44.40;93061.47;4924643;29;7488;-60
2022/09/27 12:19:49;;;;;;;;;;;;;;;25.18;45.13;93055.97;4915348;29;7245;-60
2022/09/27 12:22:25;;;;;;;;;;;;;;;25.19;44.69;93045.69;4927576;29;9803;-60
2022/09/27 12:24:52;;;;;;;;;;;;;;;25.23;44.82;93057.06;4917060;29;10208;-60
2022/09/27 12:27:45;;;;;;;;;;;;;;;25.23;44.65;93040.56;4924335;29;7227;-60
2022/09/27 12:30:20;;;;;;;;;;;;;;;25.20;44.28;93036.91;4931122;28;7364;-60
2022/09/27 12:33:20;;;;;;;;;;;;;;;25.17;44.99;93037.22;4968945;28;7029;-60
2022/09/27 12:35:55;;;;;;;;;;;;;;;25.16;44.95;93036.53;4960123;28;6972;-60
2022/09/27 12:38:40;;;;;;;;;;;;;;;25.21;44.84;93034.88;4960249;28;6974;-60
2022/09/27 12:41:11;;;;;;;;;;;;;;;25.24;44.39;93036.56;4970370;28;7242;-60
2022/09/27 12:43:43;;;;;;;;;;;;;;;25.22;44.46;93028.84;4947103;28;7352;-60
2022/09/27 12:46:21;;;;;;;;;;;;;;;25.19;44.54;93040.91;4955570;28;8733;-60
2022/09/27 12:49:08;;;;;;;;;;;;;;;25.17;45.28;93028.97;5028169;28;7175;-60
2022/09/27 12:52:10;;;;;;;;;;;;;;;25.19;44.45;93034.69;5068290;28;7264;-60
2022/09/27 12:55:15;;;;;;;;;;;;;;;25.21;45.16;93038.38;5027609;28;7384;-61
2022/09/27 12:57:50;;;;;;;;;;;;;;;25.22;44.13;93033.59;4989167;28;6985;-61
2022/09/27 13:00:33;;;;;;;;;;;;;;;25.19;44.24;93026.41;4987490;28;7257;-60
2022/09/27 13:03:35;;;;;;;;;;;;;;;25.19;44.70;93023.66;4986611;28;7178;-60
2022/09/27 13:06:39;;;;;;;;;;;;;;;25.19;44.46;93018.16;4989640;28;7427;-60
2022/09/27 13:09:44;;;;;;;;;;;;;;;25.21;44.49;93030.09;4985479;28;7285;-60
2022/09/27 13:12:21;;;;;;;;;;;;;;;25.21;44.64;93026.63;4978505;28;7261;-60
2022/09/27 13:14:58;;;;;;;;;;;;;;;25.21;44.10;93021.84;4991793;28;7616;-60
2022/09/27 13:17:43;;;;;;;;;;;;;;;25.19;44.70;93018.91;4991771;28;7464;-61
2022/09/27 13:20:35;;;;;;;;;;;;;;;25.19;45.35;93026.41;4992336;28;7005;-61
2022/09/27 13:23:30;;;;;;;;;;;;;;;25.18;44.38;93028.47;4972001;28;7199;-60
2022/09/27 13:30:18;;;;;;;;;;;;;;;25.18;45.13;93044.22;4916324;29;9164;-60
2022/09/27 13:33:15;;;;;;;;;;;;;;;25.16;44.80;93044.03;4897985;29;7243;-60
2022/09/27 13:36:15;;;;;;;;;;;;;;;25.14;44.40;93038.34;4896383;29;9141;-60
2022/09/27 13:39:16;;;;;;;;;;;;;;;25.14;44.26;93054.84;4889002;29;7214;-60
2022/09/27 13:42:06;;;;;;;;;;;;;;;25.15;45.18;93048.78;4886065;29;7405;-60
2022/09/27 13:44:53;;;;;;;;;;;;;;;25.15;44.44;93045.28;4895608;29;7261;-60
2022/09/27 13:47:26;;;;;;;;;;;;;;;25.12;44.80;93047.09;4894280;29;7498;-60
2022/09/27 13:50:17;;;;;;;;;;;;;;;25.12;44.72;93047.09;4888549;29;8820;-59
2022/09/27 13:53:01;;;;;;;;;;;;;;;25.14;44.74;93032.81;4893568;29;7214;-59
2022/09/27 13:55:43;;;;;;;;;;;;;;;25.12;45.12;93036.09;4898791;29;6983;-59
2022/09/27 13:58:28;;;;;;;;;;;;;;;25.13;44.65;93034.09;4891597;29;7211;-60
2022/09/27 14:01:18;;;;;;;;;;;;;;;25.15;45.12;93032.28;4889095;29;7098;-60
2022/09/27 14:03:58;;;;;;;;;;;;;;;25.14;44.56;93032.81;4896413;29;9039;-60
2022/09/27 14:06:35;;;;;;;;;;;;;;;25.13;44.92;93032.09;4917519;28;7213;-60
2022/09/27 14:09:26;;;;;;;;;;;;;;;25.11;44.91;93037.38;4987352;28;7260;-60
2022/09/27 14:11:58;;;;;;;;;;;;;;;25.11;44.69;93031.88;5062076;28;7230;-59
2022/09/27 14:14:57;;;;;;;;;;;;;;;25.12;44.24;93038.13;5053499;28;8067;-60
2022/09/27 14:17:25;;;;;;;;;;;;;;;25.11;45.13;93031.16;5076865;28;6997;-60
2022/09/27 14:19:53;;;;;;;;;;;;;;;25.12;44.32;93032.63;5063062;28;7173;-60
2022/09/27 14:22:51;;;;;;;;;;;;;;;25.12;45.26;93035.38;5038909;28;7253;-60
2022/09/27 14:25:49;;;;;;;;;;;;;;;25.12;44.40;93035.38;4992024;28;7008;-60